Time;durP1;ratioP1;P1;durP2;ratioP2;P2;SDS_P1;SDS_P2;PMS_P1;PMS_P2;Temp;Humidity;BMP_temperature;BMP_pressure;BME280_temperature;BME280_humidity;BME280_pressure;Samples;Min_cycle;Max_cycle;Signal;HPM_P1;HPM_P2
2021/09/18 00:00:21;;;;;;;40.95;26.55;;;13.50;99.90;;;;;;5019279;28;20018;-68
2021/09/18 00:02:47;;;;;;;44.38;26.60;;;13.50;99.90;;;;;;5017577;28;20075;-68
2021/09/18 00:05:12;;;;;;;45.47;27.95;;;13.40;99.90;;;;;;5022708;28;20025;-68
2021/09/18 00:07:38;;;;;;;52.53;28.33;;;13.40;99.90;;;;;;5025001;28;20495;-69
2021/09/18 00:10:04;;;;;;;44.47;27.75;;;13.40;99.90;;;;;;5026687;28;20030;-69
2021/09/18 00:12:30;;;;;;;43.95;25.85;;;13.40;99.90;;;;;;5018294;28;20037;-68
2021/09/18 00:14:55;;;;;;;37.55;23.20;;;13.30;99.90;;;;;;5015623;28;20030;-69
2021/09/18 00:17:21;;;;;;;41.65;27.23;;;13.30;99.90;;;;;;5031578;28;20033;-69
2021/09/18 00:19:48;;;;;;;38.45;22.58;;;13.30;99.90;;;;;;5024216;28;20084;-69
2021/09/18 00:22:13;;;;;;;39.13;22.52;;;13.20;99.90;;;;;;5020314;28;20154;-68
2021/09/18 00:24:40;;;;;;;37.53;22.02;;;13.20;99.90;;;;;;5018799;28;20014;-68
2021/09/18 00:27:05;;;;;;;36.10;20.73;;;13.20;99.90;;;;;;5026697;28;20480;-68
2021/09/18 00:29:31;;;;;;;33.78;21.08;;;13.10;99.90;;;;;;5033125;28;20033;-69
2021/09/18 00:31:56;;;;;;;42.53;25.58;;;13.10;99.90;;;;;;5025655;28;20165;-68
2021/09/18 00:34:22;;;;;;;46.95;28.38;;;13.10;99.90;;;;;;5023368;28;20365;-68
2021/09/18 00:36:48;;;;;;;55.17;30.45;;;13.00;99.90;;;;;;5027915;28;20025;-68
2021/09/18 00:39:13;;;;;;;51.97;29.58;;;13.00;99.90;;;;;;5032585;28;20034;-69
2021/09/18 00:41:39;;;;;;;41.83;25.48;;;13.00;99.90;;;;;;5030512;28;20030;-69
2021/09/18 00:44:04;;;;;;;34.65;21.55;;;13.00;99.90;;;;;;5029901;28;20424;-69
2021/09/18 00:46:30;;;;;;;48.38;27.27;;;12.90;99.90;;;;;;5020613;28;20103;-69
2021/09/18 00:48:55;;;;;;;53.25;28.20;;;12.90;99.90;;;;;;5021553;28;20108;-68
2021/09/18 00:51:21;;;;;;;58.45;34.63;;;12.90;99.90;;;;;;5034050;28;20025;-68
2021/09/18 00:53:47;;;;;;;65.90;35.03;;;12.90;99.90;;;;;;5032503;28;20026;-69
2021/09/18 00:56:13;;;;;;;57.15;32.35;;;12.80;99.90;;;;;;5031503;28;20080;-69
2021/09/18 00:58:39;;;;;;;72.20;38.15;;;12.90;99.90;;;;;;5032798;28;20037;-69
2021/09/18 01:01:05;;;;;;;81.20;41.35;;;12.80;99.90;;;;;;5031688;28;20079;-69
2021/09/18 01:03:30;;;;;;;78.55;42.35;;;12.80;99.90;;;;;;5031324;28;20064;-69
2021/09/18 01:05:57;;;;;;;77.47;39.63;;;12.80;99.90;;;;;;5029120;28;20460;-69
2021/09/18 01:08:25;;;;;;;70.60;38.08;;;12.80;99.90;;;;;;5033703;28;20036;-69
2021/09/18 01:10:52;;;;;;;67.32;36.80;;;12.80;99.90;;;;;;5020734;28;20025;-68
2021/09/18 01:13:19;;;;;;;67.97;36.83;;;12.70;99.90;;;;;;5015462;28;20034;-69
2021/09/18 01:15:46;;;;;;;68.25;36.67;;;12.70;99.90;;;;;;5022195;28;20478;-69
2021/09/18 01:18:12;;;;;;;76.90;40.38;;;12.60;99.90;;;;;;5030180;28;20159;-69
2021/09/18 01:20:40;;;;;;;80.78;39.30;;;12.60;99.90;;;;;;5018640;28;20129;-69
2021/09/18 01:23:07;;;;;;;97.00;39.15;;;12.60;99.90;;;;;;5028026;28;20022;-69
2021/09/18 01:25:36;;;;;;;232.85;47.45;;;12.60;99.90;;;;;;5029801;28;20646;-68
2021/09/18 01:28:03;;;;;;;125.00;45.42;;;12.60;99.90;;;;;;5021604;28;20040;-68
2021/09/18 01:30:31;;;;;;;74.18;37.45;;;12.60;99.90;;;;;;5023885;28;20125;-68
2021/09/18 01:32:58;;;;;;;227.95;42.63;;;12.70;99.90;;;;;;5031644;28;20026;-69
2021/09/18 01:35:23;;;;;;;296.27;43.97;;;12.70;99.90;;;;;;5030420;28;20045;-68
2021/09/18 01:37:49;;;;;;;304.30;45.42;;;12.70;99.90;;;;;;5025483;28;20033;-69
2021/09/18 01:40:19;;;;;;;319.92;51.65;;;12.60;99.90;;;;;;5033493;28;20025;-69
2021/09/18 01:42:46;;;;;;;160.02;45.97;;;12.60;99.90;;;;;;5029694;28;20030;-69
2021/09/18 01:45:13;;;;;;;287.25;48.33;;;12.60;99.90;;;;;;5029618;28;20029;-69
2021/09/18 01:47:44;;;;;;;142.82;45.28;;;12.60;99.90;;;;;;5030644;28;20034;-69
2021/09/18 01:50:46;;;;;;;166.13;44.25;;;12.60;99.90;;;;;;5015747;28;20080;-69
2021/09/18 01:53:13;;;;;;;217.68;47.30;;;12.60;99.90;;;;;;5022703;28;20472;-70
2021/09/18 01:55:41;;;;;;;95.53;41.33;;;12.50;99.90;;;;;;5025961;28;20124;-69
2021/09/18 01:58:07;;;;;;;108.07;43.10;;;12.50;99.90;;;;;;5028796;28;20031;-70
2021/09/18 02:00:40;;;;;;;97.18;40.97;;;12.50;99.90;;;;;;5029716;28;20108;-69
2021/09/18 02:03:07;;;;;;;88.55;41.47;;;12.50;99.90;;;;;;5027740;28;20162;-69
2021/09/18 02:05:32;;;;;;;132.32;41.60;;;12.40;99.90;;;;;;5024477;28;20029;-70
2021/09/18 02:07:58;;;;;;;125.38;39.53;;;12.40;99.90;;;;;;5029654;28;20377;-69
2021/09/18 02:10:27;;;;;;;141.27;38.92;;;12.40;99.90;;;;;;5032239;28;20033;-69
2021/09/18 02:12:54;;;;;;;194.73;36.60;;;12.40;99.90;;;;;;5023508;28;20472;-69
2021/09/18 02:15:21;;;;;;;123.18;35.28;;;12.30;99.90;;;;;;5026245;28;20493;-69
2021/09/18 02:17:47;;;;;;;119.70;35.05;;;12.20;99.90;;;;;;5030684;28;20045;-69
2021/09/18 02:20:18;;;;;;;140.40;35.35;;;12.10;99.90;;;;;;5024726;28;20109;-69
2021/09/18 02:22:44;;;;;;;167.55;35.05;;;12.10;99.90;;;;;;5025428;28;20075;-69
2021/09/18 02:25:11;;;;;;;114.43;34.15;;;12.10;99.90;;;;;;5025639;28;20029;-69
2021/09/18 02:27:36;;;;;;;81.32;32.85;;;12.00;99.90;;;;;;5025578;28;20033;-69
2021/09/18 02:30:03;;;;;;;85.75;33.95;;;12.00;99.90;;;;;;5031346;28;20021;-69
2021/09/18 02:32:29;;;;;;;57.75;30.30;;;11.90;99.90;;;;;;5027822;28;20037;-69
2021/09/18 02:34:54;;;;;;;43.53;28.83;;;11.90;99.90;;;;;;5022696;28;20108;-69
2021/09/18 02:37:20;;;;;;;40.90;27.35;;;11.90;99.90;;;;;;5026129;28;20083;-69
2021/09/18 02:39:46;;;;;;;37.17;28.05;;;11.90;99.90;;;;;;5025367;28;20073;-69
2021/09/18 02:42:12;;;;;;;39.15;27.52;;;11.90;99.90;;;;;;5031460;28;20076;-69
2021/09/18 02:44:37;;;;;;;39.00;27.13;;;11.80;99.90;;;;;;5021607;28;20022;-69
2021/09/18 02:47:03;;;;;;;38.67;27.52;;;11.80;99.90;;;;;;5024945;28;20479;-69
2021/09/18 02:49:29;;;;;;;35.95;25.65;;;11.80;99.90;;;;;;5017498;28;20037;-70
2021/09/18 02:51:54;;;;;;;36.72;25.50;;;11.80;99.90;;;;;;5025527;28;20034;-70
2021/09/18 02:54:20;;;;;;;48.65;26.20;;;11.80;99.90;;;;;;5027856;28;20391;-69
2021/09/18 02:56:45;;;;;;;38.00;25.75;;;11.70;99.90;;;;;;5024560;28;20041;-69
2021/09/18 02:59:11;;;;;;;36.30;25.40;;;11.70;99.90;;;;;;5024843;28;20040;-69
2021/09/18 03:01:37;;;;;;;32.50;23.70;;;11.70;99.90;;;;;;5031633;28;20094;-69
2021/09/18 03:04:03;;;;;;;45.90;25.52;;;11.70;99.90;;;;;;5025159;28;20476;-69
2021/09/18 03:06:28;;;;;;;36.40;23.42;;;11.70;99.90;;;;;;5029645;28;20705;-69
2021/09/18 03:08:55;;;;;;;35.15;24.23;;;11.70;99.90;;;;;;5029291;28;20018;-69
2021/09/18 03:11:22;;;;;;;31.77;23.33;;;11.70;99.90;;;;;;5027395;28;20025;-69
2021/09/18 03:13:47;;;;;;;28.98;21.88;;;11.70;99.90;;;;;;5022611;28;20018;-69
2021/09/18 03:16:13;;;;;;;29.50;23.27;;;11.70;99.90;;;;;;5019864;28;20055;-69
2021/09/18 03:18:39;;;;;;;27.17;20.85;;;11.70;99.90;;;;;;5019589;28;20046;-69
2021/09/18 03:21:05;;;;;;;30.15;21.90;;;11.70;99.90;;;;;;5026933;28;20040;-69
2021/09/18 03:23:31;;;;;;;26.70;21.42;;;11.70;99.90;;;;;;5027476;28;20026;-70
2021/09/18 03:25:56;;;;;;;32.45;22.75;;;11.70;99.90;;;;;;5024755;28;20017;-70
2021/09/18 03:28:22;;;;;;;26.73;21.10;;;11.70;99.90;;;;;;5026758;28;20522;-69
2021/09/18 03:30:48;;;;;;;33.08;20.75;;;11.60;99.90;;;;;;5031062;28;20065;-70
2021/09/18 03:33:13;;;;;;;32.55;20.98;;;11.60;99.90;;;;;;5029646;28;20029;-69
2021/09/18 03:35:39;;;;;;;27.40;20.90;;;11.70;99.90;;;;;;5027782;28;20109;-70
2021/09/18 03:38:04;;;;;;;25.45;19.38;;;11.60;99.90;;;;;;5021214;28;20574;-69
2021/09/18 03:40:30;;;;;;;25.95;19.58;;;11.60;99.90;;;;;;5030621;28;20029;-70
2021/09/18 03:42:56;;;;;;;36.80;20.88;;;11.60;99.90;;;;;;5023151;28;20068;-70
2021/09/18 03:45:21;;;;;;;27.77;19.48;;;11.60;99.90;;;;;;5029160;28;20498;-69
2021/09/18 03:47:47;;;;;;;23.75;18.58;;;11.50;99.90;;;;;;5030929;28;20464;-70
2021/09/18 03:50:12;;;;;;;24.10;18.75;;;11.50;99.90;;;;;;5023108;28;20025;-69
2021/09/18 03:52:38;;;;;;;19.88;16.77;;;11.50;99.90;;;;;;5020181;28;20045;-70
2021/09/18 03:55:05;;;;;;;21.90;17.52;;;11.50;99.90;;;;;;5025532;28;20048;-70
2021/09/18 03:57:31;;;;;;;16.45;12.85;;;11.50;99.90;;;;;;5021301;28;20026;-69
2021/09/18 03:59:56;;;;;;;39.72;13.90;;;11.50;99.90;;;;;;5030604;28;20025;-69
2021/09/18 04:02:22;;;;;;;20.70;14.40;;;11.50;99.90;;;;;;5029359;28;20072;-69
2021/09/18 04:04:48;;;;;;;18.42;15.85;;;11.50;99.90;;;;;;5032537;28;20384;-69
2021/09/18 04:07:13;;;;;;;23.73;16.30;;;11.40;99.90;;;;;;5033136;28;20108;-69
2021/09/18 04:09:39;;;;;;;23.45;15.13;;;11.50;99.90;;;;;;5034361;28;20021;-69
2021/09/18 04:12:05;;;;;;;17.58;15.55;;;11.40;99.90;;;;;;5033908;28;20033;-69
2021/09/18 04:14:31;;;;;;;22.88;16.80;;;11.40;99.90;;;;;;5033118;28;20407;-69
2021/09/18 04:16:56;;;;;;;17.65;15.38;;;11.40;99.90;;;;;;5034028;28;20495;-69
2021/09/18 04:19:22;;;;;;;18.88;15.90;;;11.30;99.90;;;;;;5021327;28;20068;-70
2021/09/18 04:21:47;;;;;;;19.38;17.17;;;11.30;99.90;;;;;;5015878;28;20029;-70
2021/09/18 04:24:13;;;;;;;21.02;17.00;;;11.30;99.90;;;;;;5028779;28;20029;-69
2021/09/18 04:26:39;;;;;;;19.27;16.50;;;11.30;99.90;;;;;;5023992;28;20022;-70
2021/09/18 04:29:04;;;;;;;17.83;15.68;;;11.30;99.90;;;;;;5031406;28;20027;-69
2021/09/18 04:31:30;;;;;;;19.42;15.40;;;11.30;99.90;;;;;;5028785;28;20468;-70
2021/09/18 04:33:56;;;;;;;35.55;15.38;;;11.20;99.90;;;;;;5032834;28;20467;-69
2021/09/18 04:36:21;;;;;;;46.28;17.25;;;11.20;99.90;;;;;;5032377;28;20108;-69
2021/09/18 04:38:47;;;;;;;26.50;15.60;;;11.20;99.90;;;;;;5025130;28;20078;-69
2021/09/18 04:41:13;;;;;;;28.98;16.60;;;11.20;99.90;;;;;;5016821;28;20420;-70
2021/09/18 04:43:39;;;;;;;33.95;16.98;;;11.20;99.90;;;;;;5027610;28;20109;-70
2021/09/18 04:46:04;;;;;;;35.22;17.40;;;11.20;99.90;;;;;;5027631;28;20438;-70
2021/09/18 04:48:30;;;;;;;31.13;17.80;;;11.10;99.90;;;;;;5025870;28;20104;-70
2021/09/18 04:50:56;;;;;;;23.25;15.70;;;11.10;99.90;;;;;;5020883;28;20488;-70
2021/09/18 04:53:22;;;;;;;21.55;16.17;;;11.10;99.90;;;;;;5032598;28;20041;-70
2021/09/18 04:55:48;;;;;;;19.88;16.10;;;11.00;99.90;;;;;;5029653;28;20445;-70
2021/09/18 04:58:13;;;;;;;18.88;15.40;;;11.00;99.90;;;;;;5025880;28;20033;-70
2021/09/18 05:00:39;;;;;;;19.15;15.77;;;11.00;99.90;;;;;;5031847;28;20390;-69
2021/09/18 05:03:05;;;;;;;27.42;16.67;;;11.00;99.90;;;;;;5022643;28;20510;-70
2021/09/18 05:05:31;;;;;;;35.10;18.70;;;11.00;99.90;;;;;;5029616;28;20109;-69
2021/09/18 05:07:56;;;;;;;39.88;20.23;;;11.00;99.90;;;;;;5023643;28;20029;-70
2021/09/18 05:10:22;;;;;;;28.40;17.70;;;11.10;99.90;;;;;;5033438;28;20048;-70
2021/09/18 05:12:47;;;;;;;27.85;18.55;;;11.00;99.90;;;;;;5026044;28;20057;-70
2021/09/18 05:15:13;;;;;;;37.58;20.05;;;11.00;99.90;;;;;;5032561;28;20041;-70
2021/09/18 05:17:39;;;;;;;24.65;18.40;;;11.00;99.90;;;;;;5021825;28;20111;-68
2021/09/18 05:20:05;;;;;;;27.38;18.88;;;11.00;99.90;;;;;;5027361;28;20029;-70
2021/09/18 05:22:31;;;;;;;20.92;16.10;;;11.00;99.90;;;;;;5014043;28;20120;-70
2021/09/18 05:24:56;;;;;;;22.33;16.63;;;11.10;99.90;;;;;;5022591;28;20101;-70
2021/09/18 05:27:22;;;;;;;28.40;18.67;;;11.00;99.90;;;;;;5022008;28;20506;-70
2021/09/18 05:29:47;;;;;;;30.75;17.90;;;11.10;99.90;;;;;;5031551;28;20065;-71
2021/09/18 05:32:13;;;;;;;21.60;18.23;;;11.10;99.90;;;;;;5029213;28;20033;-70
2021/09/18 05:34:39;;;;;;;26.83;18.55;;;11.10;99.90;;;;;;5027153;28;20030;-68
2021/09/18 05:37:05;;;;;;;30.08;19.30;;;11.20;99.90;;;;;;5022797;28;20036;-68
2021/09/18 05:39:31;;;;;;;48.65;20.42;;;11.20;99.90;;;;;;5022107;28;20025;-68
2021/09/18 05:41:56;;;;;;;80.50;24.73;;;11.30;99.90;;;;;;5028614;28;20476;-69
2021/09/18 05:44:22;;;;;;;48.15;21.23;;;11.30;99.90;;;;;;5016105;28;20030;-69
2021/09/18 05:46:47;;;;;;;63.63;21.75;;;11.30;99.90;;;;;;5026453;28;20025;-70
2021/09/18 05:49:13;;;;;;;75.55;21.90;;;11.40;99.90;;;;;;5022845;28;20120;-70
2021/09/18 05:51:39;;;;;;;52.78;19.70;;;11.40;99.90;;;;;;5031719;28;20029;-70
2021/09/18 05:54:05;;;;;;;42.10;20.60;;;11.50;99.90;;;;;;5024162;28;20025;-69
2021/09/18 05:56:30;;;;;;;35.55;19.70;;;11.50;99.90;;;;;;5020836;28;20531;-70
2021/09/18 05:58:56;;;;;;;38.03;21.65;;;11.60;99.90;;;;;;5019096;28;20405;-69
2021/09/18 06:01:21;;;;;;;35.00;20.50;;;11.70;99.90;;;;;;5020961;28;20044;-70
2021/09/18 06:03:47;;;;;;;37.85;21.27;;;11.70;99.90;;;;;;5028607;28;20121;-69
2021/09/18 06:06:13;;;;;;;38.95;21.05;;;11.70;99.90;;;;;;5024584;28;20068;-69
2021/09/18 06:08:38;;;;;;;50.35;22.15;;;11.70;99.90;;;;;;5030032;28;20112;-69
2021/09/18 06:11:04;;;;;;;38.33;20.50;;;11.80;99.90;;;;;;5023511;28;20021;-70
2021/09/18 06:13:29;;;;;;;27.13;19.10;;;11.80;99.90;;;;;;5032788;28;20025;-70
2021/09/18 06:15:55;;;;;;;23.10;18.42;;;11.80;99.90;;;;;;5027842;28;20389;-71
2021/09/18 06:18:21;;;;;;;22.65;15.77;;;11.80;99.90;;;;;;5032638;28;20103;-70
2021/09/18 06:20:46;;;;;;;26.48;15.77;;;11.90;99.90;;;;;;5021757;28;20439;-71
2021/09/18 06:23:12;;;;;;;19.15;15.25;;;11.90;99.90;;;;;;5012483;28;20022;-70
2021/09/18 06:25:37;;;;;;;19.92;14.32;;;12.00;99.90;;;;;;5021171;28;20112;-70
2021/09/18 06:28:03;;;;;;;25.80;16.30;;;12.00;99.90;;;;;;5020675;28;20029;-70
2021/09/18 06:30:29;;;;;;;16.55;13.23;;;12.10;99.90;;;;;;5024606;28;20048;-70
2021/09/18 06:32:54;;;;;;;17.17;14.05;;;12.10;99.90;;;;;;5022578;28;20038;-70
2021/09/18 06:35:20;;;;;;;18.92;14.55;;;12.20;99.90;;;;;;5019720;28;20034;-70
2021/09/18 06:37:48;;;;;;;17.17;15.20;;;12.20;99.90;;;;;;5026659;28;20057;-70
2021/09/18 06:40:17;;;;;;;17.83;14.27;;;12.30;99.90;;;;;;5021433;28;20128;-70
2021/09/18 06:42:43;;;;;;;16.95;14.90;;;12.40;99.90;;;;;;5029031;28;20114;-69
2021/09/18 06:45:10;;;;;;;16.88;15.07;;;12.40;99.90;;;;;;5029582;28;20013;-69
2021/09/18 06:47:36;;;;;;;17.75;15.95;;;12.50;99.90;;;;;;5022914;28;20031;-71
2021/09/18 06:50:04;;;;;;;15.65;14.02;;;12.60;99.90;;;;;;5022568;28;20026;-67
2021/09/18 06:52:30;;;;;;;18.48;16.17;;;12.80;99.90;;;;;;5020694;28;20235;-71
2021/09/18 06:55:02;;;;;;;19.25;15.77;;;12.90;99.90;;;;;;5025901;28;20061;-71
2021/09/18 06:57:32;;;;;;;;;;;13.00;99.90;;;;;;5023935;28;20029;-72
2021/09/18 07:00:01;;;;;;;24.02;14.88;;;13.10;99.90;;;;;;5021611;28;19908;-71
2021/09/18 07:02:27;;;;;;;23.40;18.10;;;13.20;99.90;;;;;;5022214;28;20053;-70
2021/09/18 07:04:52;;;;;;;25.15;18.33;;;13.30;99.90;;;;;;5021770;28;20411;-70
2021/09/18 07:07:18;;;;;;;23.48;18.75;;;13.50;99.90;;;;;;5015973;28;20052;-70
2021/09/18 07:09:43;;;;;;;22.50;17.17;;;13.60;99.90;;;;;;5022723;28;20517;-70
2021/09/18 07:12:09;;;;;;;25.45;19.98;;;13.80;99.90;;;;;;5022685;28;20030;-70
2021/09/18 07:14:34;;;;;;;24.63;18.90;;;13.80;99.90;;;;;;5019421;28;20025;-70
2021/09/18 07:17:01;;;;;;;24.33;18.33;;;14.00;99.90;;;;;;5019016;28;21417;-70
2021/09/18 07:19:27;;;;;;;24.13;19.25;;;14.10;99.90;;;;;;5019042;28;20033;-70
2021/09/18 07:21:52;;;;;;;24.88;18.77;;;14.20;99.90;;;;;;5017246;28;20025;-70
2021/09/18 07:24:18;;;;;;;24.33;18.52;;;14.40;99.90;;;;;;5025060;28;20037;-70
2021/09/18 07:26:43;;;;;;;25.88;18.08;;;14.50;99.90;;;;;;5028938;28;20064;-70
2021/09/18 07:29:09;;;;;;;29.52;18.20;;;14.50;99.90;;;;;;5018528;28;20033;-70
2021/09/18 07:31:34;;;;;;;39.40;16.92;;;14.40;99.90;;;;;;5020911;28;20483;-70
2021/09/18 07:34:00;;;;;;;44.22;20.40;;;14.40;99.90;;;;;;5020734;28;20030;-70
2021/09/18 07:36:25;;;;;;;24.25;17.38;;;14.30;99.90;;;;;;5020546;28;20028;-70
2021/09/18 07:38:51;;;;;;;27.38;17.08;;;14.30;99.90;;;;;;5021491;28;20472;-70
2021/09/18 07:41:16;;;;;;;26.33;19.73;;;14.40;99.90;;;;;;5023596;28;20511;-70
2021/09/18 07:43:43;;;;;;;31.45;20.65;;;14.50;99.90;;;;;;5024700;28;20558;-69
2021/09/18 07:46:09;;;;;;;38.97;21.90;;;14.60;99.90;;;;;;5026402;28;20021;-70
2021/09/18 07:48:35;;;;;;;53.15;23.13;;;14.70;99.90;;;;;;5024903;28;20100;-70
2021/09/18 07:51:02;;;;;;;32.58;22.90;;;14.80;99.90;;;;;;5023044;28;20613;-69
2021/09/18 07:53:28;;;;;;;48.80;22.95;;;15.00;99.90;;;;;;5023741;28;20108;-69
2021/09/18 07:55:53;;;;;;;33.78;23.65;;;15.10;99.90;;;;;;5025686;28;20120;-70
2021/09/18 07:58:19;;;;;;;32.50;21.55;;;15.30;99.90;;;;;;5022056;28;20502;-70
2021/09/18 08:00:46;;;;;;;39.10;23.02;;;15.40;99.90;;;;;;5024078;28;20462;-69
2021/09/18 08:03:14;;;;;;;31.75;22.63;;;15.60;99.90;;;;;;5021562;28;20018;-70
2021/09/18 08:05:39;;;;;;;53.85;24.60;;;15.70;99.90;;;;;;5022640;28;20018;-70
2021/09/18 08:08:05;;;;;;;51.15;26.05;;;15.90;99.90;;;;;;5019177;28;20040;-70
2021/09/18 08:10:32;;;;;;;55.28;21.63;;;16.00;99.90;;;;;;5022677;28;20037;-69
2021/09/18 08:12:58;;;;;;;56.42;23.45;;;16.20;99.90;;;;;;5021333;28;20025;-69
2021/09/18 08:15:23;;;;;;;43.38;24.25;;;16.30;99.90;;;;;;5022669;28;20036;-70
2021/09/18 08:17:50;;;;;;;34.03;22.50;;;16.30;99.90;;;;;;5020464;28;20076;-71
2021/09/18 08:20:17;;;;;;;40.03;23.52;;;16.40;99.90;;;;;;5018619;28;20041;-70
2021/09/18 08:22:43;;;;;;;43.17;25.20;;;16.50;99.90;;;;;;5019971;28;20029;-70
2021/09/18 08:25:09;;;;;;;67.97;25.15;;;16.50;99.90;;;;;;5031145;28;20026;-69
2021/09/18 08:27:36;;;;;;;33.80;22.17;;;16.60;99.90;;;;;;5030599;28;20029;-70
2021/09/18 08:30:02;;;;;;;31.58;20.63;;;16.70;99.90;;;;;;5029452;28;20029;-70
2021/09/18 08:32:28;;;;;;;26.23;21.08;;;16.80;99.90;;;;;;5027042;28;20029;-70
2021/09/18 08:34:54;;;;;;;29.40;23.00;;;16.80;99.90;;;;;;5032520;28;20041;-69
2021/09/18 08:37:20;;;;;;;30.65;20.33;;;16.90;99.90;;;;;;5026082;28;20051;-70
2021/09/18 08:39:45;;;;;;;29.88;22.48;;;17.00;99.90;;;;;;5030085;28;20103;-70
2021/09/18 08:42:11;;;;;;;31.70;23.05;;;17.00;99.90;;;;;;5025393;28;20414;-70
2021/09/18 08:44:38;;;;;;;26.92;20.80;;;17.00;99.90;;;;;;5030410;28;20025;-70
2021/09/18 08:47:04;;;;;;;29.17;23.10;;;17.10;99.90;;;;;;5026838;28;20026;-70
2021/09/18 08:49:31;;;;;;;29.95;22.65;;;17.20;99.90;;;;;;5034407;28;20497;-70
2021/09/18 08:51:56;;;;;;;28.55;17.95;;;17.30;99.90;;;;;;5031860;28;20037;-70
2021/09/18 08:54:22;;;;;;;26.33;20.45;;;17.30;99.90;;;;;;5034600;28;20380;-70
2021/09/18 08:56:47;;;;;;;25.27;20.08;;;17.30;99.90;;;;;;5032336;28;20025;-70
2021/09/18 08:59:13;;;;;;;28.45;21.70;;;17.20;99.90;;;;;;5033990;28;20029;-70
2021/09/18 09:01:39;;;;;;;26.38;21.30;;;17.20;99.90;;;;;;5034855;28;20034;-70
2021/09/18 09:04:07;;;;;;;26.30;21.00;;;17.20;99.90;;;;;;5024735;28;20026;-70
2021/09/18 09:06:43;;;;;;;26.90;22.08;;;17.30;99.90;;;;;;5028891;28;20025;-70
2021/09/18 09:09:09;;;;;;;29.17;22.88;;;17.30;99.90;;;;;;5034883;28;20091;-70
2021/09/18 09:11:35;;;;;;;35.80;24.75;;;17.40;99.90;;;;;;5033385;28;20081;-70
2021/09/18 09:14:07;;;;;;;28.90;21.58;;;17.50;99.90;;;;;;5033357;28;20110;-70
2021/09/18 09:16:35;;;;;;;25.67;20.25;;;17.60;99.90;;;;;;5017947;28;20087;-70
2021/09/18 09:19:17;;;;;;;28.10;22.42;;;17.60;99.90;;;;;;5032576;28;20499;-69
2021/09/18 09:21:52;;;;;;;26.85;22.00;;;17.60;99.90;;;;;;5029240;28;20036;-70
2021/09/18 09:24:23;;;;;;;28.98;23.33;;;17.60;99.90;;;;;;5029638;28;20529;-70
2021/09/18 09:27:07;;;;;;;26.77;22.08;;;17.60;99.90;;;;;;5033475;28;20108;-70
2021/09/18 09:29:46;;;;;;;27.67;22.75;;;17.60;99.90;;;;;;5033933;28;20093;-70
2021/09/18 09:32:35;;;;;;;28.60;23.20;;;17.60;99.90;;;;;;5029269;28;20395;-70
2021/09/18 09:35:06;;;;;;;26.90;21.67;;;17.60;99.90;;;;;;5022877;28;20056;-70
2021/09/18 09:37:31;;;;;;;31.58;24.30;;;17.70;99.90;;;;;;5033073;28;20387;-69
2021/09/18 09:39:59;;;;;;;29.42;22.95;;;17.80;99.90;;;;;;5034066;28;20025;-69
2021/09/18 09:42:30;;;;;;;29.33;24.17;;;18.00;99.90;;;;;;5020139;28;20033;-69
2021/09/18 09:45:16;;;;;;;33.92;25.83;;;18.10;99.90;;;;;;5033649;28;20495;-69
2021/09/18 09:47:43;;;;;;;28.95;22.52;;;18.30;99.90;;;;;;5031142;28;20498;-69
2021/09/18 09:50:10;;;;;;;27.40;22.08;;;18.40;99.90;;;;;;5032565;28;20045;-70
2021/09/18 09:52:37;;;;;;;24.05;20.23;;;18.50;99.90;;;;;;5033158;28;20491;-69
2021/09/18 09:55:13;;;;;;;24.60;20.95;;;18.60;99.90;;;;;;5017889;28;20112;-71
2021/09/18 09:57:41;;;;;;;22.45;19.00;;;18.70;99.90;;;;;;5025040;28;20100;-69
2021/09/18 10:00:11;;;;;;;23.23;19.15;;;18.70;99.90;;;;;;5018007;28;20365;-69
2021/09/18 10:02:39;;;;;;;25.55;19.42;;;18.80;99.90;;;;;;5021950;28;20021;-69
2021/09/18 10:05:06;;;;;;;21.67;16.85;;;18.90;99.90;;;;;;5024817;28;20060;-69
2021/09/18 10:07:33;;;;;;;21.15;16.98;;;18.90;99.90;;;;;;5030828;28;20036;-69
2021/09/18 10:09:59;;;;;;;22.17;16.58;;;19.00;99.90;;;;;;5033220;28;20033;-69
2021/09/18 10:12:26;;;;;;;18.33;15.57;;;19.00;99.90;;;;;;5032957;28;20037;-69
2021/09/18 10:14:54;;;;;;;20.17;15.50;;;19.10;99.90;;;;;;5028733;28;20033;-69
2021/09/18 10:17:19;;;;;;;20.42;15.43;;;19.20;99.90;;;;;;5029668;28;20037;-69
2021/09/18 10:25:02;;;;;;;17.10;13.70;;;19.40;99.60;;;;;;5033111;28;20160;-69
2021/09/18 10:27:28;;;;;;;16.85;13.38;;;19.50;99.90;;;;;;5030324;28;20056;-69
2021/09/18 10:29:54;;;;;;;13.88;11.60;;;19.60;99.70;;;;;;5031993;28;20589;-69
2021/09/18 10:32:21;;;;;;;13.27;11.82;;;19.70;99.60;;;;;;5029463;28;20022;-69
2021/09/18 10:34:47;;;;;;;11.98;10.52;;;19.70;99.20;;;;;;5033663;28;20101;-71
2021/09/18 10:37:33;;;;;;;11.15;9.52;;;19.80;99.20;;;;;;5026840;28;20033;-70
2021/09/18 10:40:12;;;;;;;14.05;10.18;;;19.80;98.50;;;;;;5030370;28;20026;-69
2021/09/18 10:42:40;;;;;;;11.30;9.35;;;19.80;98.00;;;;;;5030156;28;20025;-69
2021/09/18 10:45:08;;;;;;;9.70;8.70;;;19.90;97.80;;;;;;5020326;28;20383;-71
2021/09/18 10:47:37;;;;;;;10.13;7.75;;;20.00;97.20;;;;;;5025419;28;20039;-70
2021/09/18 10:50:23;;;;;;;8.98;6.53;;;20.00;96.70;;;;;;5013751;28;20018;-69
2021/09/18 10:53:03;;;;;;;7.78;6.97;;;20.10;96.60;;;;;;5018549;28;20034;-69
2021/09/18 10:55:30;;;;;;;6.53;5.25;;;20.20;96.30;;;;;;5025437;28;20120;-69
2021/09/18 10:57:55;;;;;;;9.18;5.75;;;20.40;96.20;;;;;;5028586;28;20033;-69
2021/09/18 11:00:21;;;;;;;6.03;4.70;;;20.40;95.70;;;;;;5028645;28;20479;-69
2021/09/18 11:02:51;;;;;;;4.90;3.47;;;20.60;95.20;;;;;;5029360;28;20044;-68
2021/09/18 11:05:25;;;;;;;4.78;3.53;;;20.70;94.50;;;;;;5029357;28;20025;-69
2021/09/18 11:08:02;;;;;;;4.05;3.08;;;20.70;94.00;;;;;;5029409;28;20026;-69
2021/09/18 11:10:28;;;;;;;5.70;3.13;;;20.80;93.30;;;;;;5026367;28;20064;-68
2021/09/18 11:13:12;;;;;;;3.92;1.63;;;20.80;92.60;;;;;;5025224;28;20068;-69
2021/09/18 11:16:04;;;;;;;2.40;1.30;;;20.90;92.20;;;;;;5020107;28;20038;-69
2021/09/18 11:18:31;;;;;;;3.08;1.88;;;20.90;91.50;;;;;;5029719;28;20114;-69
2021/09/18 11:21:10;;;;;;;4.10;3.20;;;20.90;90.20;;;;;;5023708;28;20034;-69
2021/09/18 11:23:42;;;;;;;4.78;2.03;;;20.80;90.20;;;;;;5019181;28;20022;-69
2021/09/18 11:26:31;;;;;;;4.30;2.95;;;20.90;90.10;;;;;;5025294;28;20104;-69
2021/09/18 11:29:19;;;;;;;5.38;3.58;;;21.00;89.90;;;;;;5022598;28;20495;-68
2021/09/18 11:32:09;;;;;;;4.07;2.45;;;21.10;89.50;;;;;;5020710;28;20033;-69
2021/09/18 11:34:39;;;;;;;3.35;2.40;;;21.10;90.10;;;;;;5026548;28;20439;-69
2021/09/18 11:37:07;;;;;;;5.07;4.47;;;21.10;88.80;;;;;;5028454;28;20029;-69
2021/09/18 11:39:41;;;;;;;6.65;4.82;;;21.20;88.80;;;;;;5027768;28;20072;-69
2021/09/18 11:42:17;;;;;;;5.95;4.90;;;21.20;88.30;;;;;;5017022;28;20029;-69
2021/09/18 11:44:44;;;;;;;6.07;4.53;;;21.20;88.60;;;;;;5027239;28;20079;-69
2021/09/18 11:47:10;;;;;;;5.70;4.40;;;21.30;88.90;;;;;;5030252;28;20025;-69
2021/09/18 11:49:36;;;;;;;7.63;5.90;;;21.40;88.50;;;;;;5030185;28;20116;-69
2021/09/18 11:52:04;;;;;;;6.60;5.45;;;21.40;88.00;;;;;;5024765;28;20112;-67
2021/09/18 11:54:32;;;;;;;6.70;4.85;;;21.40;87.90;;;;;;5021331;28;20038;-69
2021/09/18 11:57:12;;;;;;;8.45;5.68;;;21.40;88.50;;;;;;5011422;28;20030;-68
2021/09/18 11:59:38;;;;;;;7.20;4.65;;;21.50;87.10;;;;;;5026345;28;20117;-68
2021/09/18 12:02:04;;;;;;;4.28;3.53;;;21.50;86.90;;;;;;5022892;28;20025;-68
2021/09/18 12:04:44;;;;;;;3.95;1.98;;;21.50;85.60;;;;;;5023700;28;20022;-68
2021/09/18 12:07:10;;;;;;;2.13;1.05;;;21.50;84.30;;;;;;5016040;28;20022;-68
2021/09/18 12:09:36;;;;;;;3.95;1.10;;;21.60;83.50;;;;;;5019716;28;20029;-68
2021/09/18 12:12:02;;;;;;;3.08;1.77;;;21.50;82.20;;;;;;5022001;28;20037;-68
2021/09/18 12:14:37;;;;;;;3.53;2.13;;;21.50;82.30;;;;;;5021049;28;20108;-68
2021/09/18 12:17:18;;;;;;;4.43;2.65;;;21.60;82.40;;;;;;5023925;28;20052;-68
2021/09/18 12:19:45;;;;;;;7.25;4.07;;;21.70;82.40;;;;;;5025954;28;20022;-68
2021/09/18 12:22:11;;;;;;;6.13;4.63;;;21.80;83.60;;;;;;5022824;28;20349;-68
2021/09/18 12:24:38;;;;;;;7.50;5.47;;;21.90;82.60;;;;;;5030788;28;20026;-68
2021/09/18 12:27:27;;;;;;;8.60;6.38;;;21.90;83.00;;;;;;5025872;28;20099;-68
2021/09/18 12:29:55;;;;;;;12.45;8.00;;;22.00;83.50;;;;;;5020005;28;20018;-68
2021/09/18 12:32:21;;;;;;;9.82;7.88;;;22.00;83.50;;;;;;5023834;28;20026;-68
2021/09/18 12:34:46;;;;;;;12.25;7.93;;;22.10;84.30;;;;;;5030887;28;20487;-68